createdAt,value
2018-05-12T00:00:26.578Z,101100.34
2018-05-12T00:02:52.524Z,101096.81
2018-05-12T00:05:18.453Z,101095.98
2018-05-12T00:07:44.401Z,101096.08
2018-05-12T00:10:10.341Z,101094.81
2018-05-12T00:12:36.286Z,101090.70
2018-05-12T00:15:02.213Z,101080.14
2018-05-12T00:17:28.137Z,101083.21
2018-05-12T00:19:54.061Z,101077.65
2018-05-12T00:22:19.983Z,101082.83
2018-05-12T00:24:45.913Z,101073.77
2018-05-12T00:27:11.826Z,101071.86
2018-05-12T00:29:37.756Z,101075.58
2018-05-12T00:32:03.662Z,101076.17
2018-05-12T00:34:29.584Z,101081.34
2018-05-12T00:36:55.536Z,101074.64
2018-05-12T00:39:21.458Z,101063.59
2018-05-12T00:41:47.378Z,101063.08
2018-05-12T00:44:13.301Z,101067.83
2018-05-12T00:46:39.246Z,101068.38
2018-05-12T00:49:05.200Z,101073.66
2018-05-12T00:51:31.137Z,101070.08
2018-05-12T00:53:57.076Z,101070.73
2018-05-12T00:56:23.037Z,101063.53
2018-05-12T00:58:48.950Z,101072.11
2018-05-12T01:01:14.900Z,101071.82
2018-05-12T01:03:40.830Z,101066.80
2018-05-12T01:06:06.765Z,101067.18
2018-05-12T01:08:32.723Z,101059.21
2018-05-12T01:10:58.641Z,101065.90
2018-05-12T01:13:24.584Z,101062.83
2018-05-12T01:15:50.500Z,101057.25
2018-05-12T01:18:16.450Z,101058.81
2018-05-12T01:20:42.380Z,101050.50
2018-05-12T01:23:08.332Z,101058.77
2018-05-12T01:25:34.255Z,101052.70
2018-05-12T01:28:00.172Z,101054.16
2018-05-12T01:30:26.141Z,101047.31
2018-05-12T01:32:52.066Z,101056.69
2018-05-12T01:35:18.014Z,101050.83
2018-05-12T01:37:43.924Z,101056.90
2018-05-12T01:40:09.837Z,101053.51
2018-05-12T01:42:35.757Z,101054.39
2018-05-12T01:45:01.683Z,101059.27
2018-05-12T01:47:27.607Z,101053.45
2018-05-12T01:49:53.531Z,101048.36
2018-05-12T01:52:19.457Z,101048.94
2018-05-12T01:54:45.360Z,101053.09
2018-05-12T01:57:11.284Z,101048.96
2018-05-12T01:59:37.215Z,101045.35
2018-05-12T02:02:03.142Z,101048.17
2018-05-12T02:04:29.066Z,101046.12
2018-05-12T02:06:54.966Z,101048.70
2018-05-12T02:09:20.899Z,101051.58
2018-05-12T02:11:46.810Z,101049.64
2018-05-12T02:14:12.721Z,101048.34
2018-05-12T02:16:38.630Z,101047.49
2018-05-12T02:19:04.551Z,101045.12
2018-05-12T02:21:30.564Z,101047.59
2018-05-12T02:23:56.480Z,101043.20
2018-05-12T02:26:22.433Z,101046.62
2018-05-12T02:28:48.359Z,101055.94
2018-05-12T02:31:14.278Z,101058.62
2018-05-12T02:33:40.234Z,101056.86
2018-05-12T02:36:06.137Z,101060.77
2018-05-12T02:38:32.061Z,101070.92
2018-05-12T02:40:58.013Z,101072.19
2018-05-12T02:43:23.937Z,101070.47
2018-05-12T02:45:49.867Z,101068.19
2018-05-12T02:48:15.771Z,101072.56
2018-05-12T02:50:41.695Z,101073.45
2018-05-12T02:53:07.632Z,101078.11
2018-05-12T02:55:33.555Z,101074.03
2018-05-12T02:57:59.507Z,101074.34
2018-05-12T03:00:25.437Z,101071.22
2018-05-12T03:02:51.349Z,101068.71
2018-05-12T03:05:17.241Z,101066.34
2018-05-12T03:07:43.174Z,101063.58
2018-05-12T03:10:09.089Z,101064.15
2018-05-12T03:12:35.080Z,101060.77
2018-05-12T03:15:00.934Z,101063.48
2018-05-12T03:17:26.857Z,101060.58
2018-05-12T03:19:52.765Z,101060.27
2018-05-12T03:22:18.687Z,101067.91
2018-05-12T03:24:44.587Z,101057.13
2018-05-12T03:27:10.526Z,101065.55
2018-05-12T03:29:36.438Z,101071.66
2018-05-12T03:32:02.345Z,101071.31
2018-05-12T03:34:28.260Z,101066.04
2018-05-12T03:36:54.187Z,101068.76
2018-05-12T03:39:20.189Z,101064.13
2018-05-12T03:41:46.048Z,101066.68
2018-05-12T03:44:11.980Z,101061.69
2018-05-12T03:46:37.894Z,101067.75
2018-05-12T03:49:03.840Z,101070.87
2018-05-12T03:51:29.748Z,101073.82
2018-05-12T03:53:55.664Z,101072.42
2018-05-12T03:56:21.606Z,101068.42
2018-05-12T03:58:47.538Z,101073.61
2018-05-12T04:01:13.464Z,101070.33
2018-05-12T04:03:39.389Z,101067.70
2018-05-12T04:06:17.530Z,101066.28
2018-05-12T04:08:56.580Z,101062.38
2018-05-12T04:11:34.714Z,101064.58
2018-05-12T04:14:00.634Z,101061.71
2018-05-12T04:16:26.557Z,101061.06
2018-05-12T04:18:52.463Z,101058.47
2018-05-12T04:21:18.385Z,101057.95
2018-05-12T04:23:44.295Z,101062.88
2018-05-12T04:26:10.197Z,101065.30
2018-05-12T04:28:38.741Z,101065.61
2018-05-12T04:31:04.660Z,101058.05
2018-05-12T04:33:30.562Z,101066.22
2018-05-12T04:35:56.495Z,101060.52
2018-05-12T04:38:22.417Z,101056.19
2018-05-12T04:40:48.344Z,101054.43
2018-05-12T04:43:14.280Z,101057.94
2018-05-12T04:45:40.191Z,101054.00
2018-05-12T04:48:06.111Z,101054.21
2018-05-12T04:50:32.033Z,101053.89
2018-05-12T04:52:57.969Z,101053.41
2018-05-12T04:55:23.884Z,101055.91
2018-05-12T04:57:49.817Z,101049.56
2018-05-12T05:00:15.733Z,101054.50
2018-05-12T05:02:41.654Z,101054.33
2018-05-12T05:05:07.577Z,101053.22
2018-05-12T05:07:33.511Z,101060.47
2018-05-12T05:09:59.409Z,101058.89
2018-05-12T05:12:25.330Z,101060.95
2018-05-12T05:14:51.256Z,101053.33
2018-05-12T05:17:17.181Z,101056.34
2018-05-12T05:19:43.117Z,101058.84
2018-05-12T05:22:09.043Z,101064.33
2018-05-12T05:24:34.980Z,101069.77
2018-05-12T05:27:00.902Z,101065.95
2018-05-12T05:29:26.824Z,101072.50
2018-05-12T05:31:52.749Z,101070.55
2018-05-12T05:34:18.679Z,101072.46
2018-05-12T05:36:44.600Z,101078.03
2018-05-12T05:39:10.535Z,101072.16
2018-05-12T05:41:36.532Z,101066.73
2018-05-12T05:44:02.475Z,101067.05
2018-05-12T05:46:28.421Z,101069.62
2018-05-12T05:48:54.373Z,101067.00
2018-05-12T05:51:20.315Z,101074.97
2018-05-12T05:53:46.225Z,101072.06
2018-05-12T05:56:12.151Z,101069.69
2018-05-12T05:58:38.091Z,101067.63
2018-05-12T06:01:04.611Z,101070.05
2018-05-12T06:03:30.566Z,101071.99
2018-05-12T06:05:56.482Z,101077.46
2018-05-12T06:08:22.432Z,101069.02
2018-05-12T06:10:48.347Z,101072.33
2018-05-12T06:13:14.255Z,101070.39
2018-05-12T06:15:40.195Z,101065.05
2018-05-12T06:18:06.238Z,101067.65
2018-05-12T06:20:32.080Z,101066.66
2018-05-12T06:22:58.052Z,101067.37
2018-05-12T06:25:23.988Z,101064.06
2018-05-12T06:27:49.939Z,101068.91
2018-05-12T06:30:15.878Z,101071.38
2018-05-12T06:32:41.802Z,101071.45
2018-05-12T06:35:07.721Z,101076.69
2018-05-12T06:37:33.637Z,101070.61
2018-05-12T06:39:59.608Z,101074.48
2018-05-12T06:42:26.261Z,101077.84
2018-05-12T06:44:52.227Z,101079.98
2018-05-12T06:47:18.178Z,101079.64
2018-05-12T06:49:44.084Z,101077.92
2018-05-12T06:52:10.025Z,101077.41
2018-05-12T06:54:35.966Z,101070.47
2018-05-12T06:57:01.884Z,101069.12
2018-05-12T06:59:27.802Z,101070.67
2018-05-12T07:01:53.741Z,101075.52
2018-05-12T07:04:19.651Z,101079.84
2018-05-12T07:06:45.575Z,101085.28
2018-05-12T07:09:11.509Z,101071.45
2018-05-12T07:11:37.453Z,101084.70
2018-05-12T07:14:03.387Z,101086.54
2018-05-12T07:16:29.322Z,101091.09
2018-05-12T07:18:55.255Z,101081.77
2018-05-12T07:21:21.175Z,101082.30
2018-05-12T07:23:47.113Z,101074.33
2018-05-12T07:26:13.026Z,101083.91
2018-05-12T07:28:38.950Z,101078.23
2018-05-12T07:31:04.865Z,101080.01
2018-05-12T07:33:30.799Z,101081.15
2018-05-12T07:35:56.724Z,101078.23
2018-05-12T07:38:22.654Z,101079.88
2018-05-12T07:40:48.596Z,101078.80
2018-05-12T07:43:14.528Z,101084.76
2018-05-12T07:45:40.458Z,101081.15
2018-05-12T07:48:06.767Z,101081.35
2018-05-12T07:50:32.711Z,101085.95
2018-05-12T07:52:58.654Z,101075.54
2018-05-12T07:55:24.595Z,101079.44
2018-05-12T07:57:50.522Z,101082.66
2018-05-12T08:00:16.464Z,101081.34
2018-05-12T08:02:42.394Z,101078.37
2018-05-12T08:05:08.340Z,101077.97
2018-05-12T08:07:34.267Z,101080.52
2018-05-12T08:10:00.184Z,101076.47
2018-05-12T08:12:26.115Z,101068.68
2018-05-12T08:14:52.058Z,101074.27
2018-05-12T08:17:18.003Z,101062.26
2018-05-12T08:19:43.927Z,101067.87
2018-05-12T08:22:09.870Z,101066.60
2018-05-12T08:24:35.787Z,101061.78
2018-05-12T08:27:01.710Z,101059.81
2018-05-12T08:29:27.667Z,101058.67
2018-05-12T08:31:53.615Z,101054.70
2018-05-12T08:34:19.541Z,101053.87
2018-05-12T08:36:45.467Z,101054.79
2018-05-12T08:39:11.412Z,101054.24
2018-05-12T08:41:37.351Z,101048.97
2018-05-12T08:44:03.307Z,101044.28
2018-05-12T08:46:29.227Z,101046.91
2018-05-12T08:48:55.169Z,101047.22
2018-05-12T08:51:21.115Z,101045.10
2018-05-12T08:53:47.041Z,101041.86
2018-05-12T08:56:12.945Z,101039.74
2018-05-12T08:58:38.871Z,101033.80
2018-05-12T09:01:04.773Z,101030.47
2018-05-12T09:03:30.697Z,101033.73
2018-05-12T09:05:57.401Z,101031.07
2018-05-12T09:08:23.320Z,101022.69
2018-05-12T09:10:49.237Z,101031.73
2018-05-12T09:13:15.186Z,101026.03
2018-05-12T09:15:41.127Z,101034.00
2018-05-12T09:18:07.042Z,101037.71
2018-05-12T09:20:33.002Z,101030.46
2018-05-12T09:22:58.988Z,101035.61
2018-05-12T09:25:24.870Z,101030.65
2018-05-12T09:27:50.825Z,101031.38
2018-05-12T09:30:16.774Z,101036.86
2018-05-12T09:32:42.712Z,101039.69
2018-05-12T09:35:08.614Z,101031.33
2018-05-12T09:37:34.555Z,101038.80
2018-05-12T09:40:00.486Z,101035.55
2018-05-12T09:42:26.504Z,101036.42
2018-05-12T09:44:52.412Z,101032.22
2018-05-12T09:47:18.383Z,101026.50
2018-05-12T09:49:44.290Z,101022.69
2018-05-12T09:52:10.213Z,101026.02
2018-05-12T09:54:36.154Z,101031.02
2018-05-12T09:57:02.056Z,101027.30
2018-05-12T09:59:28.085Z,101026.81
2018-05-12T10:01:53.937Z,101029.92
2018-05-12T10:04:19.854Z,101019.26
2018-05-12T10:06:45.768Z,101019.40
2018-05-12T10:09:11.736Z,101018.52
2018-05-12T10:11:37.665Z,101008.80
2018-05-12T10:14:03.645Z,101008.19
2018-05-12T10:16:29.553Z,101012.05
2018-05-12T10:18:55.503Z,101009.59
2018-05-12T10:21:21.435Z,101012.27
2018-05-12T10:23:47.362Z,101001.64
2018-05-12T10:26:13.294Z,100995.38
2018-05-12T10:28:39.232Z,100992.03
2018-05-12T10:31:05.193Z,100988.38
2018-05-12T10:33:31.133Z,100983.64
2018-05-12T10:35:57.078Z,100984.08
2018-05-12T10:38:23.002Z,100976.30
2018-05-12T10:40:48.938Z,100977.01
2018-05-12T10:43:14.866Z,100974.95
2018-05-12T10:45:40.814Z,100975.27
2018-05-12T10:48:06.721Z,100966.13
2018-05-12T10:50:32.658Z,100962.75
2018-05-12T10:52:58.601Z,100960.71
2018-05-12T10:55:24.519Z,100946.66
2018-05-12T10:57:50.442Z,100952.59
2018-05-12T11:00:16.357Z,100940.81
2018-05-12T11:02:42.378Z,100947.31
2018-05-12T11:05:08.304Z,100945.74
2018-05-12T11:07:49.165Z,100945.10
2018-05-12T11:10:15.092Z,100939.59
2018-05-12T11:12:41.032Z,100937.09
2018-05-12T11:15:06.971Z,100939.95
2018-05-12T11:17:32.889Z,100929.36
2018-05-12T11:19:58.809Z,100934.26
2018-05-12T11:22:24.700Z,100930.36
2018-05-12T11:24:50.623Z,100931.89
2018-05-12T11:27:16.547Z,100925.16
2018-05-12T11:29:42.499Z,100926.02
2018-05-12T11:32:08.453Z,100925.84
2018-05-12T11:34:34.403Z,100932.94
2018-05-12T11:37:00.315Z,100919.16
2018-05-12T11:39:26.270Z,100916.95
2018-05-12T11:41:52.185Z,100900.09
2018-05-12T11:44:18.095Z,100907.47
2018-05-12T11:46:44.044Z,100902.56
2018-05-12T11:49:09.971Z,100903.19
2018-05-12T11:51:35.910Z,100902.55
2018-05-12T11:54:01.951Z,100899.45
2018-05-12T11:56:27.810Z,100894.10
2018-05-12T11:58:53.768Z,100895.98
2018-05-12T12:01:19.716Z,100890.47
2018-05-12T12:03:45.734Z,100889.80
2018-05-12T12:06:11.632Z,100882.99
2018-05-12T12:08:37.576Z,100888.34
2018-05-12T12:11:03.508Z,100885.38
2018-05-12T12:13:29.454Z,100882.59
2018-05-12T12:15:55.374Z,100880.77
2018-05-12T12:18:21.340Z,100881.75
2018-05-12T12:20:47.286Z,100886.78
2018-05-12T12:23:13.247Z,100876.98
2018-05-12T12:25:39.180Z,100873.33
2018-05-12T12:28:05.151Z,100873.70
2018-05-12T12:30:31.101Z,100874.67
2018-05-12T12:32:57.058Z,100868.23
2018-05-12T12:35:22.969Z,100855.44
2018-05-12T12:37:48.925Z,100853.28
2018-05-12T12:40:14.855Z,100856.73
2018-05-12T12:42:40.764Z,100857.27
2018-05-12T12:45:06.815Z,100855.73
2018-05-12T12:47:32.691Z,100860.39
2018-05-12T12:49:58.657Z,100860.59
2018-05-12T12:52:24.589Z,100868.83
2018-05-12T12:54:50.515Z,100864.16
2018-05-12T12:57:16.439Z,100857.46
2018-05-12T12:59:42.358Z,100855.31
2018-05-12T13:02:08.291Z,100858.69
2018-05-12T13:04:34.231Z,100855.06
2018-05-12T13:07:00.151Z,100852.52
2018-05-12T13:09:26.087Z,100853.39
2018-05-12T13:11:52.035Z,100852.92
2018-05-12T13:14:17.970Z,100859.74
2018-05-12T13:16:43.896Z,100849.39
2018-05-12T13:19:09.807Z,100846.06
2018-05-12T13:21:35.857Z,100837.56
2018-05-12T13:24:01.768Z,100838.44
2018-05-12T13:26:27.676Z,100838.73
2018-05-12T13:28:53.635Z,100828.93
2018-05-12T13:31:19.570Z,100830.16
2018-05-12T13:33:45.495Z,100817.33
2018-05-12T13:36:11.431Z,100800.56
2018-05-12T13:38:37.411Z,100800.19
2018-05-12T13:41:03.323Z,100805.83
2018-05-12T13:43:29.271Z,100797.11
2018-05-12T13:45:55.384Z,100781.44
2018-05-12T13:48:21.309Z,100778.95
2018-05-12T13:50:47.265Z,100788.00
2018-05-12T13:53:13.183Z,100784.14
2018-05-12T13:55:39.198Z,100780.98
2018-05-12T13:58:05.062Z,100774.56
2018-05-12T14:00:31.053Z,100774.93
2018-05-12T14:02:56.986Z,100763.63
2018-05-12T14:05:22.958Z,100762.08
2018-05-12T14:07:48.901Z,100759.85
2018-05-12T14:10:14.853Z,100761.66
2018-05-12T14:12:40.767Z,100767.89
2018-05-12T14:15:06.706Z,100764.98
2018-05-12T14:17:32.662Z,100756.80
2018-05-12T14:19:58.597Z,100759.64
2018-05-12T14:22:24.579Z,100760.39
2018-05-12T14:24:50.491Z,100752.83
2018-05-12T14:27:16.461Z,100754.66
2018-05-12T14:29:42.387Z,100752.03
2018-05-12T14:32:08.318Z,100754.88
2018-05-12T14:34:34.304Z,100738.66
2018-05-12T14:37:00.246Z,100744.28
2018-05-12T14:39:26.201Z,100742.96
2018-05-12T14:41:52.127Z,100739.38
2018-05-12T14:44:18.051Z,100749.38
2018-05-12T14:46:43.971Z,100746.98
2018-05-12T14:49:09.908Z,100734.46
2018-05-12T14:51:35.841Z,100733.56
2018-05-12T14:54:01.780Z,100737.20
2018-05-12T14:56:27.692Z,100731.39
2018-05-12T14:58:53.620Z,100720.80
2018-05-12T15:01:19.554Z,100727.58
2018-05-12T15:03:45.523Z,100723.47
2018-05-12T15:06:11.453Z,100713.66
2018-05-12T15:08:37.388Z,100723.78
2018-05-12T15:11:03.329Z,100723.83
2018-05-12T15:13:29.241Z,100726.70
2018-05-12T15:15:55.182Z,100724.55
2018-05-12T15:18:21.100Z,100719.56
2018-05-12T15:20:47.050Z,100714.84
2018-05-12T15:23:12.989Z,100712.56
2018-05-12T15:25:38.939Z,100710.19
2018-05-12T15:28:04.878Z,100704.59
2018-05-12T15:30:30.829Z,100703.76
2018-05-12T15:32:56.758Z,100699.95
2018-05-12T15:35:22.740Z,100691.45
2018-05-12T15:37:48.679Z,100690.83
2018-05-12T15:40:14.643Z,100691.59
2018-05-12T15:42:40.587Z,100693.45
2018-05-12T15:45:06.942Z,100686.62
2018-05-12T15:47:32.887Z,100688.34
2018-05-12T15:49:58.900Z,100690.84
2018-05-12T15:52:24.829Z,100689.73
2018-05-12T15:54:50.769Z,100679.80
2018-05-12T15:57:16.730Z,100673.45
2018-05-12T15:59:42.663Z,100674.86
2018-05-12T16:02:08.575Z,100668.20
2018-05-12T16:04:34.546Z,100662.14
2018-05-12T16:07:00.467Z,100664.02
2018-05-12T16:09:26.412Z,100658.63
2018-05-12T16:11:52.331Z,100664.71
2018-05-12T16:14:18.301Z,100657.40
2018-05-12T16:16:44.250Z,100651.84
2018-05-12T16:19:10.216Z,100657.55
2018-05-12T16:21:36.213Z,100661.45
2018-05-12T16:24:02.133Z,100656.09
2018-05-12T16:26:28.091Z,100653.53
2018-05-12T16:28:54.025Z,100657.56
2018-05-12T16:31:20.004Z,100652.69
2018-05-12T16:33:45.914Z,100661.00
2018-05-12T16:36:11.850Z,100663.28
2018-05-12T16:38:37.780Z,100662.10
2018-05-12T16:41:03.746Z,100660.36
2018-05-12T16:43:29.676Z,100658.66
2018-05-12T16:45:55.604Z,100655.64
2018-05-12T16:48:21.515Z,100654.37
2018-05-12T16:50:47.619Z,100652.91
2018-05-12T16:53:13.411Z,100654.96
2018-05-12T16:55:39.354Z,100656.03
2018-05-12T16:58:05.288Z,100653.55
2018-05-12T17:00:31.224Z,100652.27
2018-05-12T17:02:57.162Z,100649.23
2018-05-12T17:05:23.084Z,100649.72
2018-05-12T17:07:49.053Z,100652.23
2018-05-12T17:10:14.986Z,100651.77
2018-05-12T17:12:40.967Z,100643.66
2018-05-12T17:15:06.891Z,100636.08
2018-05-12T17:17:32.863Z,100641.48
2018-05-12T17:19:58.778Z,100636.84
2018-05-12T17:22:24.725Z,100645.41
2018-05-12T17:24:50.663Z,100641.81
2018-05-12T17:27:16.595Z,100635.65
2018-05-12T17:29:42.590Z,100636.63
2018-05-12T17:32:08.519Z,100635.67
2018-05-12T17:34:34.465Z,100643.08
2018-05-12T17:37:00.388Z,100637.82
2018-05-12T17:39:26.348Z,100624.38
2018-05-12T17:41:52.312Z,100634.42
2018-05-12T17:44:18.339Z,100636.59
2018-05-12T17:46:44.228Z,100636.55
2018-05-12T17:49:11.014Z,100634.56
2018-05-12T17:51:36.982Z,100633.56
2018-05-12T17:54:02.910Z,100626.70
2018-05-12T17:56:28.866Z,100630.02
2018-05-12T17:58:54.816Z,100627.63
2018-05-12T18:01:20.754Z,100621.09
2018-05-12T18:03:46.748Z,100625.98
2018-05-12T18:06:15.028Z,100627.63
2018-05-12T18:08:40.957Z,100628.48
2018-05-12T18:11:07.842Z,100624.31
2018-05-12T18:13:33.772Z,100623.00
2018-05-12T18:15:59.722Z,100625.44
2018-05-12T18:18:25.694Z,100622.67
2018-05-12T18:20:51.592Z,100630.69
2018-05-12T18:23:17.537Z,100630.25
2018-05-12T18:25:43.474Z,100628.30
2018-05-12T18:28:09.462Z,100629.41
2018-05-12T18:30:35.403Z,100631.92
2018-05-12T18:33:01.359Z,100632.66
2018-05-12T18:35:27.302Z,100631.43
2018-05-12T18:37:53.246Z,100634.90
2018-05-12T18:40:19.163Z,100631.43
2018-05-12T18:42:45.101Z,100640.92
2018-05-12T18:45:11.017Z,100631.46
2018-05-12T18:47:36.967Z,100636.89
2018-05-12T18:50:02.961Z,100635.05
2018-05-12T18:52:28.871Z,100642.30
2018-05-12T18:54:54.937Z,100642.47
2018-05-12T18:57:20.869Z,100639.92
2018-05-12T18:59:46.819Z,100646.59
2018-05-12T19:02:12.757Z,100647.48
2018-05-12T19:04:38.698Z,100648.70
2018-05-12T19:07:04.654Z,100638.77
2018-05-12T19:09:30.601Z,100651.63
2018-05-12T19:11:56.581Z,100644.83
2018-05-12T19:14:22.540Z,100648.39
2018-05-12T19:16:48.492Z,100641.83
2018-05-12T19:19:14.433Z,100641.55
2018-05-12T19:21:40.393Z,100645.98
2018-05-12T19:24:06.375Z,100641.91
2018-05-12T19:26:32.340Z,100648.29
2018-05-12T19:28:58.436Z,100647.08
2018-05-12T19:31:24.394Z,100647.14
2018-05-12T19:33:50.342Z,100643.69
2018-05-12T19:36:16.325Z,100648.02
2018-05-12T19:38:42.339Z,100652.14
2018-05-12T19:41:08.307Z,100652.04
2018-05-12T19:43:34.292Z,100653.95
2018-05-12T19:46:00.222Z,100647.36
2018-05-12T19:48:26.204Z,100655.06
2018-05-12T19:50:52.126Z,100654.10
2018-05-12T19:53:18.094Z,100653.09
2018-05-12T19:55:44.056Z,100659.23
2018-05-12T19:58:10.008Z,100657.87
2018-05-12T20:00:35.958Z,100646.49
2018-05-12T20:03:01.941Z,100653.91
2018-05-12T20:05:27.868Z,100661.17
2018-05-12T20:07:53.843Z,100659.54
2018-05-12T20:10:19.849Z,100657.63
2018-05-12T20:12:45.849Z,100663.98
2018-05-12T20:15:11.811Z,100662.01
2018-05-12T20:17:37.758Z,100663.81
2018-05-12T20:20:03.831Z,100656.36
2018-05-12T20:22:29.766Z,100663.52
2018-05-12T20:24:55.781Z,100665.86
2018-05-12T20:27:21.749Z,100661.88
2018-05-12T20:29:48.689Z,100661.25
2018-05-12T20:32:14.637Z,100659.56
2018-05-12T20:34:40.591Z,100658.26
2018-05-12T20:37:06.618Z,100659.55
2018-05-12T20:39:32.520Z,100658.78
2018-05-12T20:41:58.517Z,100660.63
2018-05-12T20:44:24.465Z,100656.50
2018-05-12T20:46:50.458Z,100650.74
2018-05-12T20:49:16.383Z,100646.25
2018-05-12T20:51:42.428Z,100643.69
2018-05-12T20:54:08.400Z,100645.47
2018-05-12T20:56:34.330Z,100642.77
2018-05-12T20:59:00.255Z,100643.77
2018-05-12T21:01:26.193Z,100645.91
2018-05-12T21:03:52.189Z,100642.81
2018-05-12T21:06:18.120Z,100627.91
2018-05-12T21:08:44.073Z,100628.64
2018-05-12T21:11:10.011Z,100638.06
2018-05-12T21:13:35.971Z,100635.66
2018-05-12T21:16:01.912Z,100626.92
2018-05-12T21:18:27.902Z,100634.17
2018-05-12T21:20:53.838Z,100627.44
2018-05-12T21:23:19.774Z,100634.13
2018-05-12T21:25:45.704Z,100629.29
2018-05-12T21:28:11.647Z,100636.39
2018-05-12T21:30:37.581Z,100637.27
2018-05-12T21:33:03.498Z,100634.73
2018-05-12T21:35:29.451Z,100632.45
2018-05-12T21:37:55.422Z,100629.64
2018-05-12T21:40:21.346Z,100629.50
2018-05-12T21:42:47.260Z,100632.36
2018-05-12T21:45:13.211Z,100634.44
2018-05-12T21:47:39.922Z,100634.96
2018-05-12T21:50:07.480Z,100632.16
2018-05-12T21:52:33.427Z,100625.66
2018-05-12T21:54:59.334Z,100631.23
2018-05-12T21:57:25.285Z,100630.42
2018-05-12T21:59:51.251Z,100630.08
2018-05-12T22:02:17.219Z,100632.59
2018-05-12T22:04:43.141Z,100628.11
2018-05-12T22:07:09.073Z,100636.92
2018-05-12T22:09:35.007Z,100629.55
2018-05-12T22:12:00.915Z,100637.73
2018-05-12T22:14:26.845Z,100643.62
2018-05-12T22:16:52.791Z,100640.51
2018-05-12T22:19:18.717Z,100635.42
2018-05-12T22:21:44.665Z,100643.10
2018-05-12T22:24:10.601Z,100642.38
2018-05-12T22:26:36.524Z,100644.92
2018-05-12T22:29:02.454Z,100641.38
2018-05-12T22:31:28.389Z,100641.80
2018-05-12T22:33:54.394Z,100645.50
2018-05-12T22:36:20.316Z,100649.92
2018-05-12T22:38:46.269Z,100654.63
2018-05-12T22:41:12.218Z,100663.03
2018-05-12T22:43:38.134Z,100660.45
2018-05-12T22:46:04.062Z,100657.05
2018-05-12T22:48:29.987Z,100647.22
2018-05-12T22:50:55.922Z,100638.39
2018-05-12T22:53:21.826Z,100644.40
2018-05-12T22:55:47.726Z,100647.12
2018-05-12T22:58:13.666Z,100641.51
2018-05-12T23:00:39.596Z,100636.27
2018-05-12T23:03:05.508Z,100635.62
2018-05-12T23:05:31.453Z,100637.21
2018-05-12T23:07:57.352Z,100633.55
2018-05-12T23:10:23.285Z,100628.18
2018-05-12T23:12:49.227Z,100624.48
2018-05-12T23:15:15.166Z,100625.90
2018-05-12T23:17:41.126Z,100620.09
2018-05-12T23:20:07.044Z,100609.08
2018-05-12T23:22:32.964Z,100610.19
2018-05-12T23:24:58.949Z,100611.23
2018-05-12T23:27:24.831Z,100616.12
2018-05-12T23:29:50.742Z,100615.28
2018-05-12T23:32:16.701Z,100608.08
2018-05-12T23:34:42.641Z,100608.89
2018-05-12T23:37:08.581Z,100601.20
2018-05-12T23:39:34.523Z,100599.61
2018-05-12T23:42:00.443Z,100604.45
2018-05-12T23:44:26.378Z,100596.93
2018-05-12T23:46:52.283Z,100597.61
2018-05-12T23:49:18.209Z,100593.84
2018-05-12T23:51:44.143Z,100592.42
2018-05-12T23:54:10.064Z,100582.66
2018-05-12T23:56:35.989Z,100584.09
2018-05-12T23:59:01.937Z,100579.70
